If you wish to contribute or participate in the discussions about articles you are invited to join SKYbrary as a registered user

 Actions

Brunswick Golden Isles Airport

From SKYbrary Wiki

KBQK
Airport
ICAO: KBQK
Summary
Name Brunswick Golden Isles Airport
Region North America
Territory United States US.gif
Location Brunswick, Georgia
Serving
Coordinates 31° 15' 25.93" N, 81° 28' 8.43" W
Runways
Designator Length Width Surface ROPS
7/25 2439 m8,001.969 ft
46 m150.919 ft
PEM yes/yes


METAR
Observation KBQK 172355Z AUTO 11005KT 10SM SCT120 27/21 A2993 RMK AO2 T02730210 10351 20273 403510197
Station Brunswick / Glynco
Date/Time 17 September 2019 23:55:00
Wind direction 110°
Wind speed 05 kts
Lowest cloud amount scattered clouds
Temperature 27.3°C
Dew point 21°C
Humidity 68%
QNH hPa
Weather condition n/a

WX
Tag(s) Cumulonimbus
Tropical Revolving Storm

Brunswick Golden Isles Airport

ICAO: KBQK IATA: BQK

Description

Brunswick Golden Isles Airport, previously known as Glynco Jetport, is a public-use airport located 9 km4.86 nm
9,000 m
29,527.559 ft
north of the central business district of Brunswick, a city in Glynn County, Georgia.

Climatology

Humid “subtropical” climate (Köppen climate classification Cfa) - characterized by hot, humid summers and cool winters. Significant amounts of precipitation occur in all seasons in most areas.

Maps

Terrain

Loading map...

Airport Layout

Loading map...


Accidents & Serious Incidents at or in vicinity of KBQK

None on SKYbrary